Climatologie pour Saint-Brevin les Pins
Jour • Résumé pour avril 25, 2017 Système :  Métrique    Anglais   Mixte
« - 1 jour
+ 1 jour »
Jour Semaine Mois Année Personnalisé
  Maximum : Minimum : Moyenne :
Température sous abri : 10.3 °C 4.3 °C 8.5 °C
Point de rosée : 8.1 °C 0.8 °C 4.6 °C
Humidité : 92 % 54 % 77 %
Vitesse du vent : 24.1 km/h 0.0 km/h 6.6 km/h
Rafale : 35.4 km/h - -
Direction :- - East
Pression : 1014.1 hPa 1011.7 hPa -
Précipitations : 1.0 mm    
Historical Graphs
 
 
Tableau de données pour avril 25, 2017
Heure Tempé Pt rosée Pression Vent Vitesse Rafale Humidité Taux pluie (/hr) Soleil
00:00 9.7 °C 6.3 °C 1013.8 hPa NNE 1.6 km/h 6.4 km/h 79 % 0.0 mm 0 W/m2
00:10 9.3 °C 6.2 °C 1013.4 hPa NNE 3.2 km/h 6.4 km/h 81 % 0.0 mm 0 W/m2
00:15 9.3 °C 6.2 °C 1013.4 hPa NNE 3.2 km/h 9.7 km/h 81 % 0.0 mm 0 W/m2
00:20 9.2 °C 6.1 °C 1013.4 hPa NE 4.8 km/h 9.7 km/h 81 % 0.0 mm 0 W/m2
00:25 9.2 °C 6.1 °C 1013.4 hPa NE 3.2 km/h 9.7 km/h 81 % 0.0 mm 0 W/m2
00:30 9.2 °C 6.1 °C 1013.4 hPa NE 1.6 km/h 9.7 km/h 81 % 0.0 mm 0 W/m2
00:35 9.2 °C 6.1 °C 1013.4 hPa North 6.4 km/h 8.0 km/h 81 % 0.0 mm 0 W/m2
00:40 9.2 °C 6.1 °C 1013.4 hPa NNE 3.2 km/h 8.0 km/h 81 % 0.0 mm 0 W/m2
00:45 9.0 °C 5.9 °C 1013.4 hPa NE 6.4 km/h 9.7 km/h 81 % 0.0 mm 0 W/m2
00:50 8.8 °C 5.9 °C 1013.4 hPa NNE 3.2 km/h 9.7 km/h 82 % 0.0 mm 0 W/m2
00:55 8.8 °C 5.9 °C 1013.4 hPa Calm   9.7 km/h 82 % 0.0 mm 0 W/m2
01:00 8.9 °C 6.0 °C 1013.4 hPa North 3.2 km/h 8.0 km/h 82 % 0.0 mm 0 W/m2
01:10 8.8 °C 6.0 °C 1013.4 hPa Calm   9.7 km/h 83 % 0.0 mm 0 W/m2
01:15 8.8 °C 6.2 °C 1013.4 hPa NNE 3.2 km/h 9.7 km/h 84 % 0.0 mm 0 W/m2
01:20 8.9 °C 6.2 °C 1013.1 hPa Calm   11.3 km/h 83 % 0.0 mm 0 W/m2
01:25 9.1 °C 6.3 °C 1013.1 hPa Calm   11.3 km/h 83 % 0.0 mm 0 W/m2
01:35 9.3 °C 6.0 °C 1013.4 hPa Calm   8.0 km/h 80 % 0.0 mm 0 W/m2
01:40 9.2 °C 6.1 °C 1013.1 hPa NE 3.2 km/h 6.4 km/h 81 % 0.0 mm 0 W/m2
01:45 9.2 °C 6.1 °C 1013.1 hPa Calm   6.4 km/h 81 % 0.0 mm 0 W/m2
01:50 9.3 °C 6.0 °C 1013.4 hPa Calm   6.4 km/h 80 % 0.0 mm 0 W/m2
01:55 9.1 °C 6.0 °C 1013.4 hPa Calm   4.8 km/h 81 % 0.0 mm 0 W/m2
02:00 8.8 °C 5.9 °C 1013.4 hPa NNE 6.4 km/h 6.4 km/h 82 % 0.0 mm 0 W/m2
02:05 8.6 °C 5.7 °C 1013.4 hPa NNE 1.6 km/h 6.4 km/h 82 % 0.0 mm 0 W/m2
02:10 8.5 °C 5.8 °C 1013.1 hPa NNE 3.2 km/h 6.4 km/h 83 % 0.0 mm 0 W/m2
02:15 8.5 °C 5.8 °C 1013.1 hPa NE 1.6 km/h 6.4 km/h 83 % 0.0 mm 0 W/m2
02:25 8.6 °C 5.8 °C 1013.1 hPa NE 3.2 km/h 8.0 km/h 83 % 0.0 mm 0 W/m2
02:30 8.7 °C 5.8 °C 1013.1 hPa Calm   6.4 km/h 82 % 0.0 mm 0 W/m2
02:35 8.7 °C 5.8 °C 1013.1 hPa NE 1.6 km/h 6.4 km/h 82 % 0.0 mm 0 W/m2
02:40 8.4 °C 5.5 °C 1012.8 hPa NNE 3.2 km/h 6.4 km/h 82 % 0.0 mm 0 W/m2
02:45 8.6 °C 5.8 °C 1012.8 hPa Calm   6.4 km/h 83 % 0.0 mm 0 W/m2
02:50 8.7 °C 5.9 °C 1012.8 hPa NE 3.2 km/h 9.7 km/h 83 % 0.0 mm 0 W/m2
02:55 8.8 °C 5.9 °C 1012.8 hPa Calm   9.7 km/h 82 % 0.0 mm 0 W/m2
03:00 8.9 °C 6.0 °C 1012.8 hPa NE 4.8 km/h 6.4 km/h 82 % 0.0 mm 0 W/m2
03:05 9.0 °C 5.9 °C 1012.8 hPa NE 1.6 km/h 6.4 km/h 81 % 0.0 mm 0 W/m2
03:10 8.9 °C 6.0 °C 1012.8 hPa Calm   6.4 km/h 82 % 0.0 mm 0 W/m2
03:15 8.9 °C 6.0 °C 1012.8 hPa NNE 1.6 km/h 9.7 km/h 82 % 0.0 mm 0 W/m2
03:25 8.8 °C 5.9 °C 1012.8 hPa NE 3.2 km/h 8.0 km/h 82 % 0.0 mm 0 W/m2
03:30 9.0 °C 6.1 °C 1012.8 hPa NNE 3.2 km/h 6.4 km/h 82 % 0.0 mm 0 W/m2
03:35 9.2 °C 6.3 °C 1012.8 hPa NE 8.0 km/h 9.7 km/h 82 % 0.0 mm 0 W/m2
03:40 9.3 °C 6.2 °C 1012.8 hPa NE 1.6 km/h 9.7 km/h 81 % 0.0 mm 0 W/m2
03:45 9.4 °C 6.5 °C 1012.4 hPa NNE 3.2 km/h 9.7 km/h 82 % 0.0 mm 0 W/m2
03:55 9.6 °C 6.5 °C 1012.8 hPa Calm   9.7 km/h 81 % 0.0 mm 0 W/m2
04:00 9.6 °C 6.5 °C 1012.8 hPa Calm   9.7 km/h 81 % 0.0 mm 0 W/m2
04:05 9.6 °C 6.5 °C 1012.4 hPa NE 4.8 km/h 8.0 km/h 81 % 0.0 mm 0 W/m2
04:10 9.6 °C 6.5 °C 1012.4 hPa Calm   9.7 km/h 81 % 0.0 mm 0 W/m2
04:15 9.5 °C 6.4 °C 1012.4 hPa Calm   9.7 km/h 81 % 0.0 mm 0 W/m2
04:20 9.4 °C 6.3 °C 1012.4 hPa NE 4.8 km/h 6.4 km/h 81 % 0.0 mm 0 W/m2
04:25 9.4 °C 6.3 °C 1012.4 hPa Calm   8.0 km/h 81 % 0.0 mm 0 W/m2
04:30 9.3 °C 6.4 °C 1012.4 hPa NNE 4.8 km/h 8.0 km/h 82 % 0.0 mm 0 W/m2
04:35 9.3 °C 6.4 °C 1012.4 hPa NE 1.6 km/h 8.0 km/h 82 % 0.0 mm 0 W/m2
04:40 9.3 °C 6.4 °C 1012.4 hPa NE 6.4 km/h 8.0 km/h 82 % 0.0 mm 0 W/m2
04:45 9.4 °C 6.6 °C 1012.4 hPa Calm   8.0 km/h 83 % 0.0 mm 0 W/m2
04:50 9.4 °C 6.7 °C 1012.4 hPa ENE 1.6 km/h 8.0 km/h 83 % 0.0 mm 0 W/m2
04:55 9.4 °C 6.6 °C 1012.1 hPa NE 6.4 km/h 8.0 km/h 83 % 0.0 mm 0 W/m2
05:00 9.3 °C 6.6 °C 1012.1 hPa Calm   6.4 km/h 83 % 0.0 mm 0 W/m2
05:05 9.3 °C 6.6 °C 1012.1 hPa Calm   6.4 km/h 83 % 0.0 mm 0 W/m2
05:10 9.2 °C 6.7 °C 1012.1 hPa Calm   6.4 km/h 84 % 0.0 mm 0 W/m2
05:15 9.2 °C 6.7 °C 1012.1 hPa NE 6.4 km/h 6.4 km/h 84 % 0.0 mm 0 W/m2
05:20 9.2 °C 6.6 °C 1012.1 hPa Calm   8.0 km/h 84 % 0.0 mm 0 W/m2
05:25 9.1 °C 6.5 °C 1012.1 hPa NE 3.2 km/h 8.0 km/h 84 % 0.0 mm 0 W/m2
05:30 8.9 °C 6.5 °C 1012.1 hPa NE 1.6 km/h 8.0 km/h 85 % 0.0 mm 0 W/m2
05:35 8.8 °C 6.6 °C 1012.1 hPa Calm   8.0 km/h 86 % 0.0 mm 0 W/m2
05:40 8.7 °C 6.5 °C 1011.7 hPa Calm   4.8 km/h 86 % 0.0 mm 0 W/m2
05:45 8.7 °C 6.6 °C 1011.7 hPa NE 1.6 km/h 4.8 km/h 87 % 0.0 mm 0 W/m2
05:50 8.6 °C 6.6 °C 1011.7 hPa NE 3.2 km/h 4.8 km/h 87 % 0.0 mm 0 W/m2
05:55 8.6 °C 6.6 °C 1011.7 hPa NE 4.8 km/h 6.4 km/h 87 % 0.0 mm 0 W/m2
06:00 8.5 °C 6.5 °C 1011.7 hPa NNE 1.6 km/h 6.4 km/h 87 % 0.0 mm 0 W/m2
06:05 8.4 °C 6.6 °C 1011.7 hPa North 1.6 km/h 6.4 km/h 88 % 0.0 mm 0 W/m2
06:10 8.5 °C 6.6 °C 1011.7 hPa Calm   6.4 km/h 88 % 0.0 mm 0 W/m2
06:15 8.5 °C 6.6 °C 1011.7 hPa North 1.6 km/h 6.4 km/h 88 % 0.0 mm 0 W/m2
06:20 8.4 °C 6.6 °C 1011.7 hPa Calm   6.4 km/h 88 % 0.0 mm 0 W/m2
06:25 8.3 °C 6.5 °C 1011.7 hPa NE 1.6 km/h 9.7 km/h 88 % 0.0 mm 0 W/m2
06:30 8.4 °C 6.7 °C 1011.7 hPa Calm   9.7 km/h 89 % 0.0 mm 0 W/m2
06:35 8.4 °C 6.7 °C 1011.7 hPa NNE 3.2 km/h 8.0 km/h 89 % 0.0 mm 0 W/m2
06:40 8.4 °C 6.7 °C 1011.7 hPa Calm   6.4 km/h 89 % 0.0 mm 0 W/m2
06:45 8.3 °C 6.6 °C 1011.7 hPa NNE 3.2 km/h 8.0 km/h 89 % 0.0 mm 0 W/m2
06:50 8.4 °C 6.7 °C 1011.7 hPa North 3.2 km/h 8.0 km/h 89 % 0.0 mm 0 W/m2
06:55 8.4 °C 6.8 °C 1011.7 hPa Calm   6.4 km/h 90 % 0.0 mm 0 W/m2
07:00 8.6 °C 7.0 °C 1011.7 hPa NNE 3.2 km/h 11.3 km/h 90 % 0.0 mm 0 W/m2
07:05 8.7 °C 7.1 °C 1012.1 hPa North 4.8 km/h 11.3 km/h 90 % 0.0 mm 0 W/m2
07:10 8.7 °C 7.1 °C 1012.1 hPa North 1.6 km/h 8.0 km/h 90 % 0.0 mm 5 W/m2
07:15 8.7 °C 7.2 °C 1012.1 hPa Calm   8.0 km/h 90 % 0.0 mm 7 W/m2
07:20 8.8 °C 7.3 °C 1012.1 hPa North 1.6 km/h 12.9 km/h 90 % 0.0 mm 11 W/m2
07:25 8.9 °C 7.4 °C 1012.1 hPa NNE 1.6 km/h 12.9 km/h 90 % 0.0 mm 12 W/m2
07:30 8.9 °C 7.4 °C 1012.1 hPa NNE 11.3 km/h 11.3 km/h 90 % 0.0 mm 14 W/m2
07:35 9.0 °C 7.4 °C 1012.1 hPa North 8.0 km/h 16.1 km/h 90 % 0.0 mm 16 W/m2
07:40 9.1 °C 7.5 °C 1012.1 hPa NE 9.7 km/h 16.1 km/h 90 % 0.0 mm 16 W/m2
07:45 9.1 °C 7.5 °C 1012.1 hPa NNE 9.7 km/h 17.7 km/h 90 % 0.0 mm 16 W/m2
07:50 9.1 °C 7.6 °C 1012.1 hPa NNE 6.4 km/h 17.7 km/h 90 % 0.0 mm 25 W/m2
07:55 9.1 °C 7.6 °C 1012.4 hPa North 4.8 km/h 16.1 km/h 90 % 0.0 mm 35 W/m2
08:00 9.2 °C 7.6 °C 1012.4 hPa NNE 4.8 km/h 17.7 km/h 90 % 0.0 mm 44 W/m2
08:05 9.2 °C 7.5 °C 1012.1 hPa NNE 1.6 km/h 17.7 km/h 89 % 0.0 mm 51 W/m2
08:10 9.3 °C 7.7 °C 1012.4 hPa North 9.7 km/h 19.3 km/h 90 % 0.0 mm 62 W/m2
08:15 9.4 °C 7.8 °C 1012.4 hPa NE 3.2 km/h 19.3 km/h 90 % 0.0 mm 76 W/m2
08:20 9.4 °C 7.7 °C 1012.4 hPa ENE 4.8 km/h 22.5 km/h 89 % 0.0 mm 120 W/m2
08:25 9.7 °C 7.9 °C 1012.4 hPa NNW 6.4 km/h 22.5 km/h 89 % 0.0 mm 128 W/m2
08:30 9.8 °C 8.1 °C 1012.4 hPa NE 4.8 km/h 17.7 km/h 89 % 0.0 mm 81 W/m2
08:35 9.8 °C 8.1 °C 1012.4 hPa NE 9.7 km/h 17.7 km/h 89 % 0.0 mm 62 W/m2
08:40 9.8 °C 8.1 °C 1012.4 hPa NNE 3.2 km/h 17.7 km/h 89 % 0.0 mm 37 W/m2
08:45 9.6 °C 7.7 °C 1012.4 hPa North 4.8 km/h 25.7 km/h 88 % 0.0 mm 62 W/m2
08:50 9.2 °C 7.1 °C 1012.4 hPa NE 4.8 km/h 25.7 km/h 87 % 0.0 mm 86 W/m2
08:55 8.9 °C 6.7 °C 1012.4 hPa NE 22.5 km/h 27.4 km/h 86 % 0.0 mm 95 W/m2
09:00 8.7 °C 6.5 °C 1012.8 hPa NE 24.1 km/h 27.4 km/h 86 % 0.0 mm 76 W/m2
09:05 8.5 °C 6.3 °C 1012.8 hPa ENE 20.9 km/h 25.7 km/h 86 % 0.0 mm 60 W/m2
09:10 8.3 °C 6.0 °C 1012.8 hPa ENE 24.1 km/h 29.0 km/h 85 % 0.0 mm 53 W/m2
09:15 8.3 °C 5.9 °C 1012.8 hPa East 11.3 km/h 29.0 km/h 85 % 0.0 mm 51 W/m2
09:20 8.3 °C 5.7 °C 1012.8 hPa North 6.4 km/h 29.0 km/h 84 % 0.0 mm 54 W/m2
09:25 8.2 °C 5.6 °C 1013.1 hPa NNW 6.4 km/h 27.4 km/h 84 % 0.0 mm 40 W/m2
09:30 8.1 °C 5.5 °C 1013.1 hPa NE 9.7 km/h 32.2 km/h 84 % 0.0 mm 35 W/m2
09:40 7.9 °C 5.4 °C 1013.1 hPa NE 6.4 km/h 22.5 km/h 84 % 0.0 mm 21 W/m2
09:45 7.8 °C 5.3 °C 1013.1 hPa NNE 20.9 km/h 24.1 km/h 84 % 0.0 mm 21 W/m2
09:50 7.8 °C 5.2 °C 1013.1 hPa NE 9.7 km/h 24.1 km/h 84 % 0.0 mm 26 W/m2
09:55 7.7 °C 5.2 °C 1013.1 hPa NNE 11.3 km/h 24.1 km/h 84 % 0.0 mm 33 W/m2
10:00 7.7 °C 5.3 °C 1013.1 hPa NNE 9.7 km/h 24.1 km/h 85 % 0.0 mm 44 W/m2
10:05 7.6 °C 5.4 °C 1013.1 hPa NE 12.9 km/h 25.7 km/h 86 % 0.0 mm 56 W/m2
10:10 7.4 °C 5.4 °C 1013.1 hPa NNE 9.7 km/h 25.7 km/h 87 % 0.0 mm 62 W/m2
10:15 7.3 °C 5.5 °C 1013.1 hPa NE 9.7 km/h 22.5 km/h 88 % 0.0 mm 54 W/m2
10:20 7.3 °C 5.6 °C 1013.1 hPa NNE 6.4 km/h 25.7 km/h 89 % 0.0 mm 58 W/m2
10:25 7.2 °C 5.5 °C 1013.1 hPa ENE 11.3 km/h 25.7 km/h 89 % 0.0 mm 76 W/m2
10:30 7.2 °C 5.7 °C 1013.1 hPa NE 3.2 km/h 22.5 km/h 90 % 0.0 mm 125 W/m2
10:35 7.3 °C 6.0 °C 1013.4 hPa ENE 16.1 km/h 24.1 km/h 91 % 0.3 mm 123 W/m2
10:40 7.3 °C 5.9 °C 1013.4 hPa North 12.9 km/h 24.1 km/h 91 % 0.3 mm 113 W/m2
10:45 7.1 °C 5.5 °C 1013.4 hPa NE 3.2 km/h 22.5 km/h 90 % 0.3 mm 132 W/m2
10:50 7.1 °C 5.7 °C 1013.4 hPa NNE 8.0 km/h 25.7 km/h 91 % 0.5 mm 137 W/m2
10:55 7.0 °C 5.6 °C 1013.4 hPa NNE 4.8 km/h 25.7 km/h 91 % 0.5 mm 141 W/m2
11:00 7.2 °C 5.8 °C 1013.4 hPa North 4.8 km/h 25.7 km/h 91 % 0.5 mm 178 W/m2
11:10 7.2 °C 5.8 °C 1013.4 hPa ENE 16.1 km/h 22.5 km/h 91 % 0.5 mm 234 W/m2
11:15 7.1 °C 5.7 °C 1013.4 hPa NE 12.9 km/h 24.1 km/h 91 % 0.5 mm 232 W/m2
11:25 6.9 °C 5.6 °C 1013.4 hPa ENE 6.4 km/h 35.4 km/h 91 % 0.5 mm 204 W/m2
11:30 7.0 °C 5.6 °C 1013.4 hPa NE 8.0 km/h 27.4 km/h 91 % 0.8 mm 199 W/m2
11:35 7.0 °C 5.6 °C 1013.4 hPa NE 11.3 km/h 27.4 km/h 91 % 0.5 mm 207 W/m2
11:40 6.8 °C 5.3 °C 1013.4 hPa ENE 12.9 km/h 32.2 km/h 90 % 0.5 mm 192 W/m2
11:45 6.7 °C 5.2 °C 1013.4 hPa NE 6.4 km/h 32.2 km/h 90 % 0.5 mm 190 W/m2
11:50 6.9 °C 5.7 °C 1013.4 hPa North 6.4 km/h 27.4 km/h 92 % 0.5 mm 206 W/m2
11:55 7.0 °C 5.6 °C 1013.4 hPa ENE 14.5 km/h 20.9 km/h 91 % 0.5 mm 204 W/m2
12:00 7.1 °C 5.7 °C 1013.4 hPa NNE 12.9 km/h 22.5 km/h 91 % 0.5 mm 209 W/m2
12:05 7.1 °C 5.5 °C 1013.4 hPa East 14.5 km/h 22.5 km/h 90 % 0.5 mm 211 W/m2
12:10 7.2 °C 5.9 °C 1013.4 hPa North 8.0 km/h 20.9 km/h 91 % 0.5 mm 190 W/m2
12:15 7.2 °C 5.7 °C 1013.4 hPa NE 9.7 km/h 22.5 km/h 90 % 0.5 mm 167 W/m2
12:20 7.3 °C 5.9 °C 1013.1 hPa East 12.9 km/h 22.5 km/h 91 % 0.5 mm 199 W/m2
12:25 7.5 °C 6.1 °C 1013.1 hPa ENE 6.4 km/h 20.9 km/h 91 % 0.5 mm 209 W/m2
12:30 7.6 °C 6.1 °C 1013.1 hPa ENE 12.9 km/h 20.9 km/h 90 % 0.3 mm 216 W/m2
12:35 7.7 °C 6.2 °C 1013.1 hPa NE 1.6 km/h 19.3 km/h 90 % 0.3 mm 230 W/m2
12:40 8.0 °C 6.5 °C 1013.1 hPa NE 11.3 km/h 17.7 km/h 90 % 0.3 mm 243 W/m2
12:45 8.0 °C 6.5 °C 1013.1 hPa NE 6.4 km/h 19.3 km/h 90 % 0.3 mm 244 W/m2
12:50 8.0 °C 6.3 °C 1013.1 hPa ENE 9.7 km/h 22.5 km/h 89 % 0.3 mm 248 W/m2
12:55 8.2 °C 6.5 °C 1013.1 hPa North 17.7 km/h 22.5 km/h 89 % 0.0 mm 258 W/m2
13:00 8.3 °C 6.4 °C 1013.1 hPa NNE 14.5 km/h 22.5 km/h 88 % 0.0 mm 260 W/m2
13:05 8.4 °C 6.6 °C 1013.4 hPa ENE 11.3 km/h 20.9 km/h 88 % 0.0 mm 257 W/m2
13:10 8.4 °C 6.6 °C 1013.4 hPa NE 8.0 km/h 22.5 km/h 88 % 0.0 mm 257 W/m2
13:15 8.4 °C 6.4 °C 1013.4 hPa NE 14.5 km/h 22.5 km/h 87 % 0.0 mm 244 W/m2
13:20 8.5 °C 6.3 °C 1013.4 hPa NNW 3.2 km/h 22.5 km/h 86 % 0.0 mm 230 W/m2
13:25 8.4 °C 6.0 °C 1013.4 hPa NNE 17.7 km/h 20.9 km/h 85 % 0.0 mm 216 W/m2
13:30 8.4 °C 6.0 °C 1013.4 hPa North 11.3 km/h 19.3 km/h 85 % 0.0 mm 200 W/m2
13:35 8.4 °C 6.0 °C 1013.1 hPa NNE 4.8 km/h 19.3 km/h 85 % 0.0 mm 202 W/m2
13:40 8.4 °C 6.0 °C 1013.1 hPa NE 4.8 km/h 20.9 km/h 85 % 0.0 mm 199 W/m2
13:45 8.5 °C 6.3 °C 1013.1 hPa NE 12.9 km/h 20.9 km/h 86 % 0.0 mm 213 W/m2
13:50 8.7 °C 6.3 °C 1013.1 hPa NE 6.4 km/h 20.9 km/h 85 % 0.0 mm 200 W/m2
13:55 8.6 °C 6.0 °C 1013.1 hPa NNE 4.8 km/h 17.7 km/h 84 % 0.0 mm 207 W/m2
14:00 8.5 °C 5.8 °C 1013.1 hPa North 9.7 km/h 22.5 km/h 83 % 0.0 mm 241 W/m2
14:05 8.7 °C 5.9 °C 1013.1 hPa NNE 11.3 km/h 22.5 km/h 83 % 0.0 mm 248 W/m2
14:10 8.8 °C 5.7 °C 1013.1 hPa ENE 12.9 km/h 19.3 km/h 81 % 0.0 mm 264 W/m2
14:15 8.8 °C 5.6 °C 1013.1 hPa NNE 6.4 km/h 19.3 km/h 80 % 0.0 mm 229 W/m2
14:20 8.8 °C 5.5 °C 1013.1 hPa North 6.4 km/h 19.3 km/h 80 % 0.0 mm 207 W/m2
14:25 8.7 °C 5.0 °C 1013.1 hPa NE 14.5 km/h 27.4 km/h 78 % 0.0 mm 211 W/m2
14:30 8.6 °C 4.8 °C 1013.1 hPa NNE 17.7 km/h 27.4 km/h 77 % 0.0 mm 199 W/m2
14:40 8.6 °C 4.8 °C 1013.1 hPa NE 14.5 km/h 20.9 km/h 77 % 0.0 mm 213 W/m2
14:45 8.6 °C 4.8 °C 1013.1 hPa NNE 14.5 km/h 20.9 km/h 77 % 0.0 mm 202 W/m2
14:50 8.8 °C 5.2 °C 1013.1 hPa NNW 6.4 km/h 19.3 km/h 78 % 0.0 mm 214 W/m2
14:55 8.9 °C 5.1 °C 1013.1 hPa NNE 4.8 km/h 16.1 km/h 77 % 0.0 mm 214 W/m2
15:00 8.8 °C 4.4 °C 1013.1 hPa NE 9.7 km/h 19.3 km/h 74 % 0.0 mm 216 W/m2
15:05 8.8 °C 4.4 °C 1013.1 hPa North 9.7 km/h 19.3 km/h 74 % 0.0 mm 250 W/m2
15:10 8.9 °C 4.3 °C 1013.1 hPa NNE 11.3 km/h 19.3 km/h 73 % 0.0 mm 229 W/m2
15:15 8.9 °C 4.6 °C 1013.1 hPa NNE 3.2 km/h 19.3 km/h 74 % 0.0 mm 255 W/m2
15:20 8.9 °C 4.2 °C 1013.1 hPa North 9.7 km/h 24.1 km/h 72 % 0.0 mm 218 W/m2
15:25 8.9 °C 4.2 °C 1013.1 hPa NE 4.8 km/h 24.1 km/h 72 % 0.0 mm 216 W/m2
15:35 8.7 °C 3.1 °C 1013.1 hPa ENE 11.3 km/h 24.1 km/h 68 % 0.0 mm 216 W/m2
15:40 8.7 °C 3.1 °C 1013.1 hPa NE 8.0 km/h 20.9 km/h 68 % 0.0 mm 225 W/m2
15:45 8.8 °C 3.4 °C 1013.1 hPa NE 4.8 km/h 19.3 km/h 69 % 0.0 mm 204 W/m2
15:50 8.9 °C 3.5 °C 1013.1 hPa North 3.2 km/h 19.3 km/h 69 % 0.0 mm 197 W/m2
15:55 8.9 °C 3.1 °C 1013.1 hPa NNE 9.7 km/h 24.1 km/h 67 % 0.0 mm 213 W/m2
16:00 8.8 °C 2.8 °C 1013.1 hPa NNW 9.7 km/h 24.1 km/h 66 % 0.0 mm 239 W/m2
16:05 9.0 °C 3.2 °C 1013.1 hPa NE 14.5 km/h 20.9 km/h 67 % 0.0 mm 218 W/m2
16:10 9.0 °C 2.3 °C 1013.1 hPa NE 3.2 km/h 17.7 km/h 63 % 0.0 mm 209 W/m2
16:15 9.1 °C 2.8 °C 1013.1 hPa ENE 9.7 km/h 17.7 km/h 65 % 0.0 mm 202 W/m2
16:20 9.0 °C 2.5 °C 1013.1 hPa NNE 11.3 km/h 19.3 km/h 64 % 0.0 mm 207 W/m2
16:25 9.0 °C 2.3 °C 1012.8 hPa NE 4.8 km/h 19.3 km/h 63 % 0.0 mm 218 W/m2
16:30 9.1 °C 2.4 °C 1012.8 hPa NE 14.5 km/h 17.7 km/h 63 % 0.0 mm 213 W/m2
16:35 9.1 °C 2.0 °C 1012.8 hPa ENE 6.4 km/h 19.3 km/h 61 % 0.0 mm 209 W/m2
16:40 9.2 °C 2.7 °C 1012.8 hPa NE 8.0 km/h 20.9 km/h 64 % 0.0 mm 195 W/m2
16:45 9.1 °C 2.0 °C 1012.8 hPa NNE 4.8 km/h 22.5 km/h 61 % 0.0 mm 185 W/m2
16:50 9.1 °C 1.5 °C 1012.8 hPa NE 6.4 km/h 24.1 km/h 59 % 0.0 mm 183 W/m2
16:55 9.1 °C 1.3 °C 1012.4 hPa North 3.2 km/h 24.1 km/h 58 % 0.0 mm 176 W/m2
17:00 9.2 °C 1.6 °C 1012.4 hPa North 11.3 km/h 22.5 km/h 59 % 0.0 mm 179 W/m2
17:05 9.1 °C 1.3 °C 1012.4 hPa NE 16.1 km/h 24.1 km/h 58 % 0.0 mm 174 W/m2
17:10 9.2 °C 2.0 °C 1012.4 hPa North 4.8 km/h 24.1 km/h 61 % 0.0 mm 178 W/m2
17:15 9.2 °C 1.9 °C 1012.4 hPa NE 4.8 km/h 16.1 km/h 60 % 0.0 mm 200 W/m2
17:20 9.4 °C 2.5 °C 1012.4 hPa NE 3.2 km/h 19.3 km/h 62 % 0.0 mm 216 W/m2
17:25 9.5 °C 2.3 °C 1012.4 hPa North 6.4 km/h 19.3 km/h 61 % 0.0 mm 225 W/m2
17:30 9.7 °C 2.5 °C 1012.4 hPa NE 8.0 km/h 17.7 km/h 61 % 0.0 mm 264 W/m2
17:35 9.8 °C 2.0 °C 1012.4 hPa NNE 12.9 km/h 17.7 km/h 58 % 0.0 mm 304 W/m2
17:40 9.9 °C 2.3 °C 1012.4 hPa North 3.2 km/h 16.1 km/h 59 % 0.0 mm 250 W/m2
17:45 10.1 °C 2.5 °C 1012.1 hPa ENE 4.8 km/h 17.7 km/h 59 % 0.0 mm 214 W/m2
17:50 10.1 °C 2.5 °C 1012.4 hPa North 11.3 km/h 22.5 km/h 59 % 0.0 mm 207 W/m2
17:55 10.1 °C 1.9 °C 1012.1 hPa NNE 11.3 km/h 22.5 km/h 57 % 0.0 mm 223 W/m2
18:00 10.0 °C 1.6 °C 1012.4 hPa North 17.7 km/h 17.7 km/h 56 % 0.0 mm 229 W/m2
18:05 10.0 °C 1.4 °C 1012.4 hPa NE 12.9 km/h 20.9 km/h 55 % 0.0 mm 207 W/m2
18:10 10.0 °C 1.9 °C 1012.1 hPa North 3.2 km/h 24.1 km/h 57 % 0.0 mm 218 W/m2
18:15 10.0 °C 1.9 °C 1012.1 hPa North 4.8 km/h 24.1 km/h 57 % 0.0 mm 230 W/m2
18:20 10.0 °C 1.4 °C 1012.1 hPa North 6.4 km/h 20.9 km/h 55 % 0.0 mm 221 W/m2
18:25 10.1 °C 1.7 °C 1012.1 hPa North 9.7 km/h 22.5 km/h 56 % 0.0 mm 213 W/m2
18:30 10.1 °C 2.2 °C 1012.1 hPa North 12.9 km/h 22.5 km/h 58 % 0.0 mm 239 W/m2
18:35 10.3 °C 1.9 °C 1012.1 hPa North 8.0 km/h 22.5 km/h 56 % 0.0 mm 243 W/m2
18:40 10.3 °C 1.9 °C 1012.1 hPa North 17.7 km/h 24.1 km/h 56 % 0.0 mm 193 W/m2
18:45 10.1 °C 2.2 °C 1012.1 hPa NE 6.4 km/h 25.7 km/h 58 % 0.0 mm 162 W/m2
18:50 9.9 °C 1.6 °C 1012.1 hPa NNE 11.3 km/h 25.7 km/h 56 % 0.0 mm 148 W/m2
18:55 9.9 °C 2.0 °C 1012.1 hPa NE 4.8 km/h 20.9 km/h 58 % 0.0 mm 192 W/m2
19:00 10.0 °C 1.9 °C 1012.1 hPa NE 8.0 km/h 25.7 km/h 57 % 0.0 mm 176 W/m2
19:05 9.9 °C 1.3 °C 1012.1 hPa ENE 12.9 km/h 25.7 km/h 55 % 0.0 mm 151 W/m2
19:10 10.1 °C 1.9 °C 1012.1 hPa NE 12.9 km/h 20.9 km/h 57 % 0.0 mm 269 W/m2
19:15 10.2 °C 1.8 °C 1012.1 hPa North 9.7 km/h 19.3 km/h 56 % 0.0 mm 139 W/m2
19:20 10.0 °C 1.6 °C 1012.1 hPa NNE 8.0 km/h 19.3 km/h 56 % 0.0 mm 125 W/m2
19:25 9.8 °C 2.0 °C 1012.1 hPa NE 1.6 km/h 19.3 km/h 58 % 0.0 mm 137 W/m2
19:30 9.9 °C 1.8 °C 1012.1 hPa NE 4.8 km/h 17.7 km/h 57 % 0.0 mm 171 W/m2
19:35 10.1 °C 2.0 °C 1012.1 hPa ENE 16.1 km/h 20.9 km/h 57 % 0.0 mm 116 W/m2
19:40 10.1 °C 2.6 °C 1012.1 hPa NNE 6.4 km/h 20.9 km/h 60 % 0.0 mm 121 W/m2
19:45 9.9 °C 1.1 °C 1012.1 hPa NE 11.3 km/h 22.5 km/h 54 % 0.0 mm 83 W/m2
19:50 9.7 °C 0.8 °C 1012.1 hPa NNE 9.7 km/h 22.5 km/h 54 % 0.0 mm 116 W/m2
19:55 9.5 °C 2.1 °C 1012.1 hPa ENE 6.4 km/h 20.9 km/h 60 % 0.0 mm 62 W/m2
20:00 9.2 °C 1.1 °C 1012.1 hPa NE 11.3 km/h 16.1 km/h 57 % 0.0 mm 65 W/m2
20:05 9.2 °C 1.6 °C 1012.1 hPa ENE 6.4 km/h 20.9 km/h 59 % 0.0 mm 60 W/m2
20:10 9.1 °C 1.0 °C 1012.1 hPa North 6.4 km/h 20.9 km/h 57 % 0.0 mm 46 W/m2
20:15 8.9 °C 1.4 °C 1012.1 hPa NNE 6.4 km/h 16.1 km/h 59 % 0.0 mm 40 W/m2
20:25 8.4 °C 1.8 °C 1012.1 hPa North 6.4 km/h 11.3 km/h 63 % 0.0 mm 30 W/m2
20:30 8.1 °C 2.1 °C 1012.1 hPa NNW 8.0 km/h 9.7 km/h 66 % 0.0 mm 35 W/m2
20:35 8.2 °C 2.2 °C 1012.1 hPa Calm   14.5 km/h 66 % 0.0 mm 44 W/m2
20:40 8.3 °C 2.5 °C 1012.1 hPa North 6.4 km/h 14.5 km/h 67 % 0.0 mm 33 W/m2
20:45 8.5 °C 2.3 °C 1012.4 hPa North 11.3 km/h 19.3 km/h 65 % 0.0 mm 30 W/m2
20:50 8.7 °C 2.0 °C 1012.4 hPa North 4.8 km/h 19.3 km/h 63 % 0.0 mm 28 W/m2
20:55 8.6 °C 2.1 °C 1012.4 hPa NNE 3.2 km/h 19.3 km/h 64 % 0.0 mm 39 W/m2
21:00 8.7 °C 1.6 °C 1012.4 hPa NNE 11.3 km/h 24.1 km/h 61 % 0.0 mm 33 W/m2
21:05 8.7 °C 1.8 °C 1012.4 hPa North 1.6 km/h 24.1 km/h 62 % 0.0 mm 18 W/m2
21:10 8.6 °C 1.5 °C 1012.4 hPa NE 9.7 km/h 24.1 km/h 61 % 0.0 mm 14 W/m2
21:15 8.6 °C 1.5 °C 1012.4 hPa NNE 8.0 km/h 24.1 km/h 61 % 0.0 mm 5 W/m2
21:20 8.4 °C 1.7 °C 1012.8 hPa NNE 3.2 km/h 16.1 km/h 63 % 0.0 mm 0 W/m2
21:25 8.3 °C 1.0 °C 1012.8 hPa NNW 6.4 km/h 17.7 km/h 60 % 0.0 mm 0 W/m2
21:30 8.2 °C 1.1 °C 1012.8 hPa NNE 6.4 km/h 17.7 km/h 61 % 0.0 mm 0 W/m2
21:35 8.2 °C 0.9 °C 1012.8 hPa NNW 4.8 km/h 22.5 km/h 60 % 0.0 mm 0 W/m2
21:40 8.0 °C 1.2 °C 1012.8 hPa NNE 9.7 km/h 24.1 km/h 62 % 0.0 mm 0 W/m2
21:45 7.8 °C 1.2 °C 1012.8 hPa NNE 11.3 km/h 24.1 km/h 63 % 0.0 mm 0 W/m2
21:50 7.7 °C 1.3 °C 1013.1 hPa NNW 6.4 km/h 19.3 km/h 64 % 0.0 mm 0 W/m2
21:55 7.4 °C 1.5 °C 1013.1 hPa North 12.9 km/h 16.1 km/h 66 % 0.0 mm 0 W/m2
22:00 7.2 °C 1.4 °C 1013.1 hPa North 6.4 km/h 16.1 km/h 67 % 0.0 mm 0 W/m2
22:05 7.1 °C 1.3 °C 1013.4 hPa North 8.0 km/h 16.1 km/h 67 % 0.0 mm 0 W/m2
22:10 6.9 °C 1.2 °C 1013.4 hPa NNE 3.2 km/h 17.7 km/h 67 % 0.0 mm 0 W/m2
22:15 6.8 °C 1.1 °C 1013.4 hPa North 8.0 km/h 17.7 km/h 67 % 0.0 mm 0 W/m2
22:20 6.7 °C 1.2 °C 1013.4 hPa North 1.6 km/h 12.9 km/h 68 % 0.0 mm 0 W/m2
22:25 6.6 °C 1.5 °C 1013.4 hPa NNE 4.8 km/h 12.9 km/h 70 % 0.0 mm 0 W/m2
22:30 6.5 °C 1.2 °C 1013.4 hPa NNE 6.4 km/h 9.7 km/h 69 % 0.0 mm 0 W/m2
22:40 6.2 °C 1.3 °C 1013.8 hPa NNE 1.6 km/h 14.5 km/h 71 % 0.0 mm 0 W/m2
22:45 6.1 °C 1.2 °C 1013.8 hPa North 6.4 km/h 12.9 km/h 71 % 0.0 mm 0 W/m2
22:50 6.0 °C 1.3 °C 1013.8 hPa North 9.7 km/h 12.9 km/h 72 % 0.0 mm 0 W/m2
22:55 5.9 °C 1.3 °C 1013.8 hPa NNE 3.2 km/h 14.5 km/h 72 % 0.0 mm 0 W/m2
23:00 5.9 °C 1.2 °C 1013.8 hPa NNE 6.4 km/h 16.1 km/h 72 % 0.0 mm 0 W/m2
23:10 5.5 °C 1.2 °C 1013.8 hPa NNE 8.0 km/h 12.9 km/h 74 % 0.0 mm 0 W/m2
23:15 5.6 °C 1.1 °C 1013.8 hPa North 4.8 km/h 11.3 km/h 73 % 0.0 mm 0 W/m2
23:25 5.0 °C 0.9 °C 1014.1 hPa North 3.2 km/h 11.3 km/h 75 % 0.0 mm 0 W/m2
23:30 4.8 °C 1.0 °C 1014.1 hPa WNW 4.8 km/h 14.5 km/h 76 % 0.0 mm 0 W/m2
23:35 5.0 °C 1.1 °C 1013.8 hPa NNE 3.2 km/h 14.5 km/h 76 % 0.0 mm 0 W/m2
23:40 4.7 °C 1.0 °C 1014.1 hPa North 4.8 km/h 11.3 km/h 77 % 0.0 mm 0 W/m2
23:45 4.5 °C 1.0 °C 1014.1 hPa NNE 4.8 km/h 11.3 km/h 78 % 0.0 mm 0 W/m2
23:50 4.4 °C 1.1 °C 1014.1 hPa NNW 4.8 km/h 11.3 km/h 79 % 0.0 mm 0 W/m2
23:55 4.3 °C 1.0 °C 1014.1 hPa North 4.8 km/h 9.7 km/h 79 % 0.0 mm 0 W/m2
Avec l'autorisation de Weather Underground - 1.75 mb